createdAt,value
2023-05-24T00:00:46.626Z,102246.00
2023-05-24T00:03:15.452Z,102241.66
2023-05-24T00:05:46.737Z,102235.69
2023-05-24T00:08:15.979Z,102234.09
2023-05-24T00:10:44.050Z,102237.75
2023-05-24T00:13:11.908Z,102235.19
2023-05-24T00:15:39.626Z,102229.16
2023-05-24T00:18:07.490Z,102224.97
2023-05-24T00:20:35.262Z,102221.41
2023-05-24T00:23:04.473Z,102224.97
2023-05-24T00:25:32.257Z,102219.88
2023-05-24T00:28:00.034Z,102222.34
2023-05-24T00:30:27.820Z,102225.94
2023-05-24T00:32:55.627Z,102222.63
2023-05-24T00:35:23.407Z,102216.50
2023-05-24T00:37:51.125Z,102206.06
2023-05-24T00:40:20.536Z,102205.41
2023-05-24T00:42:48.365Z,102208.91
2023-05-24T00:45:16.163Z,102203.72
2023-05-24T00:47:44.096Z,102198.53
2023-05-24T00:50:13.225Z,102202.09
2023-05-24T00:52:42.210Z,102204.94
2023-05-24T00:55:10.972Z,102198.09
2023-05-24T00:57:41.107Z,102191.41
2023-05-24T01:00:11.237Z,102201.69
2023-05-24T01:02:39.107Z,102204.34
2023-05-24T01:05:08.014Z,102198.41
2023-05-24T01:07:41.112Z,102197.16
2023-05-24T01:10:16.428Z,102194.41
2023-05-24T01:12:54.977Z,102185.00
2023-05-24T01:15:25.831Z,102200.75
2023-05-24T01:18:01.878Z,102194.75
2023-05-24T01:20:31.761Z,102202.88
2023-05-24T01:23:08.396Z,102210.94
2023-05-24T01:25:53.820Z,102206.72
2023-05-24T01:28:23.669Z,102214.88
2023-05-24T01:30:51.431Z,102200.25
2023-05-24T01:33:19.262Z,102209.13
2023-05-24T01:35:46.992Z,102205.16
2023-05-24T01:38:15.874Z,102212.78
2023-05-24T01:40:44.171Z,102203.16
2023-05-24T01:43:17.220Z,102208.53
2023-05-24T01:45:55.878Z,102204.34
2023-05-24T01:48:31.447Z,102203.50
2023-05-24T01:51:00.188Z,102200.97
2023-05-24T01:53:32.986Z,102205.31
2023-05-24T01:56:03.629Z,102202.66
2023-05-24T01:58:31.573Z,102195.78
2023-05-24T02:01:00.933Z,102193.31
2023-05-24T02:03:28.774Z,102196.03
2023-05-24T02:05:56.488Z,102195.25
2023-05-24T02:08:24.364Z,102198.75
2023-05-24T02:10:52.132Z,102189.88
2023-05-24T02:13:20.187Z,102189.03
2023-05-24T02:15:48.007Z,102190.06
2023-05-24T02:18:18.639Z,102194.31
2023-05-24T02:20:46.996Z,102191.69
2023-05-24T02:23:14.852Z,102190.72
2023-05-24T02:25:42.602Z,102192.38
2023-05-24T02:28:10.446Z,102196.72
2023-05-24T02:30:38.632Z,102194.91
2023-05-24T02:33:06.753Z,102185.09
2023-05-24T02:35:36.017Z,102181.59
2023-05-24T02:38:06.583Z,102175.47
2023-05-24T02:40:34.691Z,102181.72
2023-05-24T02:43:02.469Z,102179.16
2023-05-24T02:45:30.410Z,102167.91
2023-05-24T02:47:58.226Z,102180.16
2023-05-24T02:50:25.931Z,102174.88
2023-05-24T02:52:54.972Z,102177.47
2023-05-24T02:55:22.721Z,102178.31
2023-05-24T02:57:50.454Z,102176.56
2023-05-24T03:00:19.214Z,102172.25
2023-05-24T03:02:47.856Z,102183.75
2023-05-24T03:05:15.882Z,102186.50
2023-05-24T03:07:43.692Z,102185.63
2023-05-24T03:10:15.161Z,102177.72
2023-05-24T03:12:43.751Z,102182.16
2023-05-24T03:15:12.137Z,102184.94
2023-05-24T03:17:39.951Z,102180.53
2023-05-24T03:20:09.153Z,102185.81
2023-05-24T03:22:36.884Z,102180.69
2023-05-24T03:25:04.869Z,102179.09
2023-05-24T03:27:34.010Z,102180.97
2023-05-24T03:30:01.844Z,102176.59
2023-05-24T03:32:29.641Z,102169.53
2023-05-24T03:34:59.416Z,102170.31
2023-05-24T03:37:27.083Z,102172.19
2023-05-24T03:39:54.946Z,102177.47
2023-05-24T03:42:22.916Z,102168.69
2023-05-24T03:44:51.996Z,102178.34
2023-05-24T03:47:19.679Z,102177.41
2023-05-24T03:49:47.455Z,102179.19
2023-05-24T03:52:15.346Z,102181.91
2023-05-24T03:54:43.123Z,102174.81
2023-05-24T03:57:10.851Z,102174.06
2023-05-24T03:59:40.469Z,102167.09
2023-05-24T04:02:10.725Z,102179.44
2023-05-24T04:04:38.520Z,102168.78
2023-05-24T04:07:07.980Z,102176.59
2023-05-24T04:09:35.777Z,102175.59
2023-05-24T04:12:03.594Z,102183.44
2023-05-24T04:14:31.361Z,102185.13
2023-05-24T04:16:59.204Z,102173.72
2023-05-24T04:19:28.683Z,102177.22
2023-05-24T04:21:56.516Z,102180.78
2023-05-24T04:24:24.263Z,102185.31
2023-05-24T04:26:52.013Z,102177.47
2023-05-24T04:29:19.897Z,102183.63
2023-05-24T04:31:48.915Z,102183.88
2023-05-24T04:34:16.876Z,102184.63
2023-05-24T04:36:47.578Z,102183.69
2023-05-24T04:39:15.887Z,102180.88
2023-05-24T04:41:43.614Z,102182.75
2023-05-24T04:44:11.419Z,102180.88
2023-05-24T04:46:39.256Z,102174.56
2023-05-24T04:49:08.511Z,102180.59
2023-05-24T04:51:38.552Z,102180.59
2023-05-24T04:54:09.100Z,102181.41
2023-05-24T04:56:38.516Z,102180.44
2023-05-24T04:59:06.932Z,102183.75
2023-05-24T05:01:35.163Z,102183.59
2023-05-24T05:04:05.312Z,102187.09
2023-05-24T05:06:34.917Z,102180.84
2023-05-24T05:09:02.903Z,102177.38
2023-05-24T05:11:32.034Z,102169.53
2023-05-24T05:13:59.770Z,102178.47
2023-05-24T05:16:27.477Z,102170.53
2023-05-24T05:18:55.249Z,102180.09
2023-05-24T05:21:23.000Z,102176.69
2023-05-24T05:23:50.783Z,102190.69
2023-05-24T05:26:18.727Z,102194.16
2023-05-24T05:28:47.876Z,102200.97
2023-05-24T05:31:15.619Z,102207.00
2023-05-24T05:33:43.327Z,102202.84
2023-05-24T05:36:11.068Z,102198.41
2023-05-24T05:38:38.788Z,102204.53
2023-05-24T05:41:07.249Z,102193.97
2023-05-24T05:43:35.056Z,102205.31
2023-05-24T05:46:04.265Z,102212.38
2023-05-24T05:48:32.021Z,102207.94
2023-05-24T05:50:59.730Z,102212.28
2023-05-24T05:53:27.582Z,102206.66
2023-05-24T05:55:55.271Z,102205.72
2023-05-24T05:58:22.984Z,102213.28
2023-05-24T06:00:50.800Z,102215.09
2023-05-24T06:03:21.099Z,102206.41
2023-05-24T06:05:48.925Z,102213.28
2023-05-24T06:08:16.586Z,102217.53
2023-05-24T06:10:44.376Z,102222.56
2023-05-24T06:13:12.301Z,102210.69
2023-05-24T06:15:40.586Z,102204.47
2023-05-24T06:18:08.337Z,102209.59
2023-05-24T06:20:37.815Z,102206.03
2023-05-24T06:23:06.104Z,102206.50
2023-05-24T06:25:34.540Z,102210.56
2023-05-24T06:28:02.278Z,102216.63
2023-05-24T06:30:30.079Z,102201.53
2023-05-24T06:32:58.329Z,102220.59
2023-05-24T06:35:26.171Z,102218.44
2023-05-24T06:37:55.322Z,102214.59
2023-05-24T06:40:23.124Z,102211.94
2023-05-24T06:42:50.960Z,102219.63
2023-05-24T06:45:18.817Z,102219.16
2023-05-24T06:47:46.577Z,102222.34
2023-05-24T06:50:14.486Z,102205.53
2023-05-24T06:52:42.563Z,102211.41
2023-05-24T06:55:11.800Z,102211.31
2023-05-24T06:57:39.520Z,102209.59
2023-05-24T07:00:12.287Z,102210.09
2023-05-24T07:02:40.478Z,102201.66
2023-05-24T07:05:12.225Z,102208.19
2023-05-24T07:07:40.513Z,102210.34
2023-05-24T07:10:09.488Z,102212.72
2023-05-24T07:12:39.248Z,102207.31
2023-05-24T07:15:08.665Z,102209.97
2023-05-24T07:17:36.480Z,102198.31
2023-05-24T07:20:07.124Z,102219.34
2023-05-24T07:22:35.015Z,102223.59
2023-05-24T07:25:02.802Z,102218.75
2023-05-24T07:27:30.564Z,102217.53
2023-05-24T07:29:59.791Z,102223.19
2023-05-24T07:32:27.729Z,102215.66
2023-05-24T07:34:55.808Z,102214.06
2023-05-24T07:37:24.936Z,102214.75
2023-05-24T07:39:53.108Z,102218.97
2023-05-24T07:42:21.679Z,102231.06
2023-05-24T07:44:49.420Z,102221.28
2023-05-24T07:47:18.563Z,102223.81
2023-05-24T07:49:46.285Z,102221.91
2023-05-24T07:52:14.390Z,102218.25
2023-05-24T07:54:42.232Z,102228.72
2023-05-24T07:57:09.976Z,102219.81
2023-05-24T07:59:37.741Z,102214.72
2023-05-24T08:02:05.811Z,102216.13
2023-05-24T08:04:34.903Z,102217.63
2023-05-24T08:07:03.425Z,102221.78
2023-05-24T08:09:33.847Z,102219.69
2023-05-24T08:12:01.623Z,102208.22
2023-05-24T08:14:29.358Z,102209.91
2023-05-24T08:16:57.075Z,102213.13
2023-05-24T08:19:24.794Z,102214.63
2023-05-24T08:21:53.997Z,102210.94
2023-05-24T08:24:22.727Z,102213.16
2023-05-24T08:26:51.872Z,102209.25
2023-05-24T08:29:19.621Z,102206.09
2023-05-24T08:31:47.615Z,102201.94
2023-05-24T08:34:15.947Z,102207.41
2023-05-24T08:36:43.964Z,102201.66
2023-05-24T08:39:13.117Z,102203.03
2023-05-24T08:41:41.985Z,102209.84
2023-05-24T08:44:09.770Z,102210.69
2023-05-24T08:46:38.154Z,102202.09
2023-05-24T08:49:07.551Z,102207.50
2023-05-24T08:51:38.582Z,102196.25
2023-05-24T08:54:06.984Z,102203.56
2023-05-24T08:56:36.075Z,102206.88
2023-05-24T08:59:03.853Z,102210.25
2023-05-24T09:01:33.300Z,102207.50
2023-05-24T09:04:03.692Z,102218.66
2023-05-24T09:08:40.594Z,102206.56
2023-05-24T09:11:10.318Z,102214.97
2023-05-24T09:13:38.627Z,102210.50
2023-05-24T09:16:07.172Z,102211.34
2023-05-24T09:18:34.863Z,102210.91
2023-05-24T09:21:02.603Z,102197.31
2023-05-24T09:23:30.846Z,102208.56
2023-05-24T09:26:00.047Z,102210.06
2023-05-24T09:28:27.664Z,102209.88
2023-05-24T09:31:00.023Z,102209.66
2023-05-24T09:33:30.130Z,102218.56
2023-05-24T09:37:32.226Z,102216.78
2023-05-24T09:40:00.922Z,102220.50
2023-05-24T09:42:30.204Z,102220.69
2023-05-24T09:45:01.598Z,102217.19
2023-05-24T09:47:33.073Z,102213.69
2023-05-24T09:50:01.469Z,102219.97
2023-05-24T09:52:31.756Z,102221.75
2023-05-24T09:55:01.312Z,102210.47
2023-05-24T09:57:29.064Z,102212.50
2023-05-24T09:59:57.645Z,102220.47
2023-05-24T10:02:27.571Z,102212.38
2023-05-24T10:04:59.952Z,102205.72
2023-05-24T10:07:28.327Z,102205.53
2023-05-24T10:09:58.046Z,102205.41
2023-05-24T10:12:25.774Z,102206.88
2023-05-24T10:14:53.596Z,102206.69
2023-05-24T10:17:21.372Z,102211.78
2023-05-24T10:19:49.673Z,102212.19
2023-05-24T10:22:17.857Z,102215.38
2023-05-24T10:24:48.127Z,102215.16
2023-05-24T10:27:22.040Z,102219.63
2023-05-24T10:31:55.795Z,102218.41
2023-05-24T10:34:23.840Z,102224.81
2023-05-24T10:36:51.701Z,102226.84
2023-05-24T10:39:22.411Z,102222.50
2023-05-24T10:41:50.203Z,102227.69
2023-05-24T10:44:20.398Z,102224.94
2023-05-24T10:47:09.284Z,102221.19
2023-05-24T10:49:37.165Z,102225.34
2023-05-24T10:52:08.674Z,102226.81
2023-05-24T10:54:39.802Z,102223.94
2023-05-24T10:57:10.685Z,102226.38
2023-05-24T10:59:39.803Z,102226.16
2023-05-24T11:02:13.900Z,102220.63
2023-05-24T11:04:43.934Z,102212.22
2023-05-24T11:07:13.225Z,102208.34
2023-05-24T11:09:46.173Z,102216.13
2023-05-24T11:12:16.170Z,102221.19
2023-05-24T11:14:48.894Z,102212.50
2023-05-24T11:17:18.468Z,102210.41
2023-05-24T11:19:48.183Z,102210.81
2023-05-24T11:22:16.226Z,102218.53
2023-05-24T11:26:53.991Z,102212.06
2023-05-24T11:29:22.906Z,102217.13
2023-05-24T11:31:52.572Z,102218.09
2023-05-24T11:34:20.787Z,102219.28
2023-05-24T11:36:52.092Z,102217.69
2023-05-24T11:39:19.885Z,102219.41
2023-05-24T11:41:48.719Z,102213.13
2023-05-24T11:44:20.224Z,102228.63
2023-05-24T11:46:48.069Z,102221.38
2023-05-24T11:49:17.254Z,102217.53
2023-05-24T11:51:45.452Z,102223.72
2023-05-24T11:57:29.377Z,102197.81
2023-05-24T11:59:58.681Z,102216.47
2023-05-24T12:02:26.545Z,102218.16
2023-05-24T12:04:55.198Z,102217.94
2023-05-24T12:07:24.628Z,102218.69
2023-05-24T12:09:52.371Z,102214.94
2023-05-24T12:12:26.592Z,102217.25
2023-05-24T12:14:59.569Z,102217.88
2023-05-24T12:17:27.482Z,102217.03
2023-05-24T12:19:55.269Z,102209.31
2023-05-24T12:22:29.836Z,102205.47
2023-05-24T12:24:58.112Z,102209.53
2023-05-24T12:27:37.643Z,102209.28
2023-05-24T12:30:10.323Z,102216.44
2023-05-24T12:32:38.188Z,102201.72
2023-05-24T12:35:06.596Z,102211.91
2023-05-24T12:37:34.673Z,102203.44
2023-05-24T12:40:05.271Z,102195.00
2023-05-24T12:44:39.246Z,102196.72
2023-05-24T12:47:09.174Z,102198.06
2023-05-24T12:49:37.410Z,102197.47
2023-05-24T12:52:06.694Z,102203.03
2023-05-24T12:54:35.083Z,102192.63
2023-05-24T12:57:03.691Z,102183.28
2023-05-24T12:59:31.596Z,102185.34
2023-05-24T13:02:00.960Z,102186.81
2023-05-24T13:04:30.659Z,102197.13
2023-05-24T13:06:58.550Z,102182.44
2023-05-24T13:09:26.988Z,102179.16
2023-05-24T13:11:55.169Z,102180.75
2023-05-24T13:14:23.065Z,102186.06
2023-05-24T13:16:50.966Z,102184.34
2023-05-24T13:19:20.303Z,102179.03
2023-05-24T13:21:48.206Z,102188.84
2023-05-24T13:24:17.607Z,102183.63
2023-05-24T13:26:46.106Z,102175.66
2023-05-24T13:31:45.009Z,102170.31
2023-05-24T13:34:13.133Z,102168.56
2023-05-24T13:36:43.114Z,102169.75
2023-05-24T13:39:15.758Z,102167.56
2023-05-24T13:41:44.750Z,102166.94
2023-05-24T13:44:12.756Z,102167.50
2023-05-24T13:46:40.876Z,102166.06
2023-05-24T13:49:09.400Z,102172.91
2023-05-24T13:51:37.578Z,102169.75
2023-05-24T13:54:09.562Z,102184.31
2023-05-24T13:56:38.628Z,102177.78
2023-05-24T13:59:08.575Z,102178.03
2023-05-24T14:01:37.666Z,102171.50
2023-05-24T14:04:06.317Z,102177.94
2023-05-24T14:06:34.625Z,102177.34
2023-05-24T14:09:02.380Z,102182.66
2023-05-24T14:11:32.612Z,102176.75
2023-05-24T14:16:31.589Z,102188.63
2023-05-24T14:18:59.496Z,102183.91
2023-05-24T14:21:27.721Z,102180.25
2023-05-24T14:23:55.561Z,102188.78
2023-05-24T14:26:23.628Z,102185.59
2023-05-24T14:28:56.058Z,102188.50
2023-05-24T14:31:25.054Z,102192.47
2023-05-24T14:33:53.075Z,102191.63
2023-05-24T14:36:20.867Z,102187.41
2023-05-24T14:38:48.621Z,102190.91
2023-05-24T14:41:16.379Z,102189.38
2023-05-24T14:45:02.050Z,102183.19
2023-05-24T14:47:29.827Z,102191.19
2023-05-24T14:49:57.567Z,102198.44
2023-05-24T14:52:25.452Z,102186.34
2023-05-24T14:54:53.084Z,102191.78
2023-05-24T14:57:20.905Z,102195.06
2023-05-24T14:59:48.711Z,102190.81
2023-05-24T15:02:17.926Z,102193.09
2023-05-24T15:04:46.034Z,102194.78
2023-05-24T15:07:13.785Z,102197.44
2023-05-24T15:09:41.441Z,102204.03
2023-05-24T15:12:09.544Z,102195.19
2023-05-24T15:14:37.366Z,102205.59
2023-05-24T15:17:05.391Z,102202.56
2023-05-24T15:19:34.517Z,102205.69
2023-05-24T15:22:02.273Z,102207.97
2023-05-24T15:24:30.173Z,102201.78
2023-05-24T15:26:57.986Z,102203.94
2023-05-24T15:29:25.866Z,102194.25
2023-05-24T15:31:53.799Z,102202.13
2023-05-24T15:34:23.682Z,102213.63
2023-05-24T15:36:53.114Z,102200.72
2023-05-24T15:39:21.529Z,102198.06
2023-05-24T15:41:49.383Z,102200.16
2023-05-24T15:44:17.173Z,102208.50
2023-05-24T15:46:44.923Z,102205.41
2023-05-24T15:49:12.712Z,102204.22
2023-05-24T15:54:46.104Z,102206.66
2023-05-24T15:57:14.053Z,102200.94
2023-05-24T15:59:41.792Z,102200.44
2023-05-24T16:02:10.036Z,102197.84
2023-05-24T16:04:37.933Z,102196.38
2023-05-24T16:07:05.706Z,102192.22
2023-05-24T16:09:33.408Z,102191.00
2023-05-24T16:12:02.909Z,102188.22
2023-05-24T16:14:30.890Z,102193.41
2023-05-24T16:17:00.021Z,102191.47
2023-05-24T16:19:29.902Z,102187.19
2023-05-24T16:21:57.797Z,102182.16
2023-05-24T16:24:25.763Z,102183.75
2023-05-24T16:26:53.479Z,102185.81
2023-05-24T16:29:22.672Z,102183.28
2023-05-24T16:31:50.795Z,102186.47
2023-05-24T16:34:18.536Z,102175.00
2023-05-24T16:36:47.052Z,102179.75
2023-05-24T16:39:14.834Z,102180.47
2023-05-24T16:41:42.590Z,102180.34
2023-05-24T16:44:10.433Z,102180.69
2023-05-24T16:46:39.593Z,102179.56
2023-05-24T16:49:07.528Z,102177.94
2023-05-24T16:51:35.301Z,102165.91
2023-05-24T16:54:03.022Z,102166.41
2023-05-24T16:56:30.792Z,102167.13
2023-05-24T16:58:58.573Z,102171.63
2023-05-24T17:01:26.335Z,102169.56
2023-05-24T17:03:55.618Z,102172.09
2023-05-24T17:06:23.427Z,102187.13
2023-05-24T17:08:51.147Z,102177.09
2023-05-24T17:11:19.831Z,102175.13
2023-05-24T17:13:48.876Z,102171.97
2023-05-24T17:16:16.786Z,102182.63
2023-05-24T17:18:44.561Z,102187.69
2023-05-24T17:21:13.798Z,102182.34
2023-05-24T17:23:41.540Z,102184.31
2023-05-24T17:26:09.731Z,102181.19
2023-05-24T17:28:37.534Z,102185.94
2023-05-24T17:31:05.316Z,102186.28
2023-05-24T17:33:33.126Z,102189.22
2023-05-24T17:36:02.831Z,102185.59
2023-05-24T17:38:33.264Z,102186.56
2023-05-24T17:41:01.068Z,102188.38
2023-05-24T17:43:32.122Z,102196.28
2023-05-24T17:46:06.051Z,102200.44
2023-05-24T17:48:35.445Z,102200.50
2023-05-24T17:51:04.132Z,102202.94
2023-05-24T17:53:34.795Z,102202.47
2023-05-24T17:56:03.304Z,102203.72
2023-05-24T17:58:36.018Z,102197.19
2023-05-24T18:01:05.267Z,102200.81
2023-05-24T18:03:33.603Z,102197.69
2023-05-24T18:06:03.931Z,102199.72
2023-05-24T18:08:33.769Z,102199.00
2023-05-24T18:11:03.706Z,102199.84
2023-05-24T18:13:31.621Z,102197.44
2023-05-24T18:15:59.803Z,102200.00
2023-05-24T18:18:27.668Z,102198.16
2023-05-24T18:20:55.444Z,102204.34
2023-05-24T18:23:23.227Z,102200.84
2023-05-24T18:26:00.450Z,102202.53
2023-05-24T18:28:29.935Z,102197.31
2023-05-24T18:30:57.809Z,102197.91
2023-05-24T18:33:25.640Z,102204.34
2023-05-24T18:35:53.588Z,102200.13
2023-05-24T18:38:21.519Z,102204.59
2023-05-24T18:40:49.250Z,102209.09
2023-05-24T18:43:18.391Z,102210.06
2023-05-24T18:45:46.213Z,102219.25
2023-05-24T18:48:13.938Z,102216.88
2023-05-24T18:50:41.692Z,102221.56
2023-05-24T18:53:09.847Z,102222.91
2023-05-24T18:55:37.545Z,102220.38
2023-05-24T18:58:06.653Z,102229.47
2023-05-24T19:00:35.845Z,102224.47
2023-05-24T19:03:03.653Z,102228.34
2023-05-24T19:05:31.704Z,102220.84
2023-05-24T19:07:59.476Z,102219.38
2023-05-24T19:10:27.323Z,102229.44
2023-05-24T19:12:55.108Z,102235.72
2023-05-24T19:15:23.499Z,102238.63
2023-05-24T19:17:55.332Z,102239.59
2023-05-24T19:20:23.400Z,102236.19
2023-05-24T19:22:51.097Z,102232.19
2023-05-24T19:25:19.421Z,102238.75
2023-05-24T19:27:59.428Z,102243.56
2023-05-24T19:30:28.561Z,102251.06
2023-05-24T19:32:57.740Z,102261.09
2023-05-24T19:35:25.638Z,102249.72
2023-05-24T19:37:53.613Z,102252.41
2023-05-24T19:40:22.320Z,102256.03
2023-05-24T19:42:50.177Z,102262.41
2023-05-24T19:45:17.937Z,102265.06
2023-05-24T19:47:46.149Z,102275.13
2023-05-24T19:50:15.327Z,102274.63
2023-05-24T19:52:43.180Z,102274.00
2023-05-24T19:55:11.220Z,102271.44
2023-05-24T19:57:38.912Z,102279.56
2023-05-24T20:00:07.960Z,102280.75
2023-05-24T20:02:36.689Z,102273.84
2023-05-24T20:05:05.198Z,102284.97
2023-05-24T20:07:34.359Z,102280.69
2023-05-24T20:10:05.042Z,102282.63
2023-05-24T20:12:34.483Z,102293.28
2023-05-24T20:15:02.304Z,102287.34
2023-05-24T20:17:30.116Z,102287.56
2023-05-24T20:19:57.993Z,102298.44
2023-05-24T20:22:25.729Z,102291.63
2023-05-24T20:24:54.823Z,102301.44
2023-05-24T20:27:22.674Z,102307.84
2023-05-24T20:29:51.002Z,102306.34
2023-05-24T20:32:18.694Z,102309.97
2023-05-24T20:34:46.436Z,102311.03
2023-05-24T20:37:14.251Z,102304.22
2023-05-24T20:39:41.992Z,102310.94
2023-05-24T20:42:11.185Z,102311.06
2023-05-24T20:44:38.926Z,102311.31
2023-05-24T20:47:07.026Z,102313.44
2023-05-24T20:49:36.016Z,102322.38
2023-05-24T20:52:03.848Z,102320.69
2023-05-24T20:54:31.536Z,102319.00
2023-05-24T20:56:59.611Z,102326.19
2023-05-24T20:59:29.186Z,102325.59
2023-05-24T21:01:56.951Z,102326.66
2023-05-24T21:04:24.727Z,102332.19
2023-05-24T21:06:52.423Z,102333.16
2023-05-24T21:09:20.194Z,102336.88
2023-05-24T21:11:48.016Z,102339.75
2023-05-24T21:14:15.711Z,102342.63
2023-05-24T21:16:45.003Z,102340.09
2023-05-24T21:19:12.850Z,102348.25
2023-05-24T21:21:40.776Z,102342.22
2023-05-24T21:24:08.788Z,102336.91
2023-05-24T21:26:36.596Z,102352.00
2023-05-24T21:29:04.294Z,102349.44
2023-05-24T21:31:32.165Z,102346.06
2023-05-24T21:34:01.364Z,102352.41
2023-05-24T21:36:29.122Z,102349.03
2023-05-24T21:38:57.528Z,102353.50
2023-05-24T21:41:26.688Z,102363.38
2023-05-24T21:43:54.390Z,102359.78
2023-05-24T21:46:22.164Z,102357.22
2023-05-24T21:48:50.222Z,102365.28
2023-05-24T21:51:19.429Z,102361.78
2023-05-24T21:53:47.144Z,102371.66
2023-05-24T21:56:14.900Z,102371.78
2023-05-24T21:58:42.615Z,102368.38
2023-05-24T22:01:10.339Z,102369.53
2023-05-24T22:03:38.402Z,102371.47
2023-05-24T22:06:06.372Z,102380.41
2023-05-24T22:08:35.537Z,102381.53
2023-05-24T22:11:03.266Z,102383.56
2023-05-24T22:13:30.944Z,102392.59
2023-05-24T22:15:58.845Z,102383.03
2023-05-24T22:18:28.313Z,102386.66
2023-05-24T22:20:58.261Z,102387.72
2023-05-24T22:23:26.507Z,102395.75
2023-05-24T22:25:55.677Z,102394.91
2023-05-24T22:28:24.602Z,102396.84
2023-05-24T22:30:52.403Z,102393.31
2023-05-24T22:33:20.214Z,102390.97
2023-05-24T22:35:48.034Z,102400.84
2023-05-24T22:38:15.724Z,102395.75
2023-05-24T22:40:43.527Z,102396.72
2023-05-24T22:43:12.637Z,102401.44
2023-05-24T22:45:40.428Z,102412.34
2023-05-24T22:48:08.165Z,102395.97
2023-05-24T22:50:35.996Z,102402.25
2023-05-24T22:53:03.739Z,102408.63
2023-05-24T22:55:31.456Z,102407.09
2023-05-24T22:57:59.327Z,102400.31
2023-05-24T23:00:28.928Z,102410.25
2023-05-24T23:02:56.835Z,102416.47
2023-05-24T23:05:24.706Z,102419.41
2023-05-24T23:07:52.551Z,102416.00
2023-05-24T23:10:20.331Z,102422.25
2023-05-24T23:12:48.099Z,102429.34
2023-05-24T23:15:18.191Z,102417.34
2023-05-24T23:17:48.215Z,102427.00
2023-05-24T23:20:16.105Z,102427.28
2023-05-24T23:22:43.840Z,102425.69
2023-05-24T23:25:11.931Z,102424.19
2023-05-24T23:27:40.589Z,102422.78
2023-05-24T23:30:09.192Z,102431.72
2023-05-24T23:32:36.971Z,102414.16
2023-05-24T23:35:06.828Z,102419.69
2023-05-24T23:37:34.549Z,102422.50
2023-05-24T23:40:06.250Z,102411.38
2023-05-24T23:42:34.170Z,102409.66
2023-05-24T23:45:02.250Z,102407.19
2023-05-24T23:47:29.974Z,102409.19
2023-05-24T23:49:57.707Z,102402.38
2023-05-24T23:52:27.060Z,102407.69
2023-05-24T23:54:54.790Z,102405.13
2023-05-24T23:57:24.959Z,102401.72
2023-05-24T23:59:52.719Z,102401.16
